Time;durP1;ratioP1;P1;durP2;ratioP2;P2;SDS_P1;SDS_P2;PMS_P1;PMS_P2;Temp;Humidity;BMP_temperature;BMP_pressure;BME280_temperature;BME280_humidity;BME280_pressure;Samples;Min_cycle;Max_cycle;Signal;HPM_P1;HPM_P2
2022/07/21 00:01:53;;;;;;;1999.90;999.90;;;;;;;;;;5066974;27;20397;-72
2022/07/21 00:04:22;;;;;;;1999.90;999.90;;;;;;;;;;5077326;27;20413;-72
2022/07/21 00:06:51;;;;;;;1999.90;999.90;;;;;;;;;;5091392;27;20389;-72
2022/07/21 00:09:19;;;;;;;1999.90;999.90;;;;;;;;;;5081697;27;20515;-72
2022/07/21 00:11:48;;;;;;;1999.90;999.90;;;;;;;;;;5086058;27;20823;-73
2022/07/21 00:14:16;;;;;;;1999.90;999.90;;;;;;;;;;5096740;27;20490;-72
2022/07/21 00:16:44;;;;;;;1999.90;999.90;;;;;;;;;;5085168;27;20396;-73
2022/07/21 00:19:12;;;;;;;1999.90;999.90;;;;;;;;;;5085694;27;20223;-73
2022/07/21 00:21:40;;;;;;;1999.90;999.90;;;;;;;;;;5083343;27;20230;-72
2022/07/21 00:24:09;;;;;;;1999.90;999.90;;;;;;;;;;5082075;27;20264;-73
2022/07/21 00:26:36;;;;;;;1999.90;999.90;;;;;;;;;;5067142;28;20230;-72
2022/07/21 00:29:04;;;;;;;1999.90;999.90;;;;;;;;;;5083883;27;20237;-72
2022/07/21 00:31:32;;;;;;;1999.90;999.90;;;;;;;;;;5088301;27;20233;-73
2022/07/21 00:34:00;;;;;;;1999.90;999.90;;;;;;;;;;5083228;27;20241;-72
2022/07/21 00:36:28;;;;;;;1999.90;999.90;;;;;;;;;;5079968;27;20490;-72
2022/07/21 00:38:55;;;;;;;1999.90;999.90;;;;;;;;;;5092207;27;20506;-72
2022/07/21 00:41:25;;;;;;;1999.90;999.90;;;;;;;;;;5082366;27;20403;-72
2022/07/21 00:43:53;;;;;;;1999.90;999.90;;;;;;;;;;5083714;27;20231;-72
2022/07/21 00:46:21;;;;;;;1999.90;999.90;;;;;;;;;;5117958;27;20237;-71
2022/07/21 00:48:49;;;;;;;1999.90;999.90;;;;;;;;;;5100567;27;20266;-72
2022/07/21 00:51:17;;;;;;;1999.90;999.90;;;;;;;;;;5084158;27;21567;-71
2022/07/21 00:53:45;;;;;;;1999.90;999.90;;;;;;;;;;5088564;27;20238;-70
2022/07/21 00:56:13;;;;;;;1999.90;999.90;;;;;;;;;;5087551;27;20237;-71
2022/07/21 00:58:42;;;;;;;1999.90;999.90;;;;;;;;;;5080876;27;20400;-72
2022/07/21 01:01:10;;;;;;;1999.90;999.90;;;;;;;;;;5081289;27;20391;-71
2022/07/21 01:03:38;;;;;;;1999.90;999.90;;;;;;;;;;5079560;27;20417;-72
2022/07/21 01:06:06;;;;;;;1999.90;999.90;;;;;;;;;;5067027;27;20998;-71
2022/07/21 01:08:33;;;;;;;1999.90;999.90;;;;;;;;;;5083615;27;20405;-72
2022/07/21 01:11:01;;;;;;;1999.90;999.90;;;;;;;;;;5065177;27;20409;-72
2022/07/21 01:13:29;;;;;;;1999.90;999.90;;;;;;;;;;5081540;27;20405;-72
2022/07/21 01:15:58;;;;;;;1999.90;999.90;;;;;;;;;;5096267;27;20388;-73
2022/07/21 01:18:27;;;;;;;1999.90;999.90;;;;;;;;;;5079675;27;20839;-71
2022/07/21 01:20:55;;;;;;;1999.90;999.90;;;;;;;;;;5081771;27;20459;-72
2022/07/21 01:23:25;;;;;;;1999.90;999.90;;;;;;;;;;5079787;27;20415;-72
2022/07/21 01:25:53;;;;;;;1999.90;999.90;;;;;;;;;;5082465;27;20389;-73
2022/07/21 01:28:20;;;;;;;1999.90;999.90;;;;;;;;;;5083046;27;20398;-72
2022/07/21 01:30:48;;;;;;;1999.90;999.90;;;;;;;;;;5084722;27;20393;-73
2022/07/21 01:33:16;;;;;;;1999.90;999.90;;;;;;;;;;5083562;27;20400;-72
2022/07/21 01:35:44;;;;;;;1999.90;999.90;;;;;;;;;;5084811;27;20404;-73
2022/07/21 01:43:45;;;;;;;1999.90;999.90;;;;;;;;;;5078422;27;20634;-72
2022/07/21 01:46:13;;;;;;;1999.90;999.90;;;;;;;;;;5101181;27;20406;-71
2022/07/21 01:48:42;;;;;;;1999.90;999.90;;;;;;;;;;5080602;27;20483;-73
2022/07/21 01:51:10;;;;;;;1999.90;999.90;;;;;;;;;;5063744;27;20398;-72
2022/07/21 01:53:38;;;;;;;1999.90;999.90;;;;;;;;;;5081176;27;20417;-73
2022/07/21 01:56:08;;;;;;;1999.90;999.90;;;;;;;;;;5079586;27;20411;-74
2022/07/21 01:58:36;;;;;;;1999.90;999.90;;;;;;;;;;5081167;27;20874;-71
2022/07/21 02:01:03;;;;;;;1999.90;999.90;;;;;;;;;;5081254;27;22151;-72
2022/07/21 02:03:31;;;;;;;1999.90;999.90;;;;;;;;;;5084387;27;20510;-72
2022/07/21 02:06:03;;;;;;;1999.90;999.90;;;;;;;;;;5081262;27;20393;-72
2022/07/21 02:08:38;;;;;;;1999.90;999.90;;;;;;;;;;5097580;27;20385;-72
2022/07/21 02:11:06;;;;;;;1999.90;999.90;;;;;;;;;;5082002;27;20413;-72
2022/07/21 02:13:35;;;;;;;1999.90;999.90;;;;;;;;;;5079877;27;20911;-72
2022/07/21 02:16:03;;;;;;;1999.90;999.90;;;;;;;;;;5083128;27;20409;-70
2022/07/21 02:18:31;;;;;;;1999.90;999.90;;;;;;;;;;5081738;27;20939;-72
2022/07/21 02:20:59;;;;;;;1999.90;999.90;;;;;;;;;;5085638;27;20791;-72
2022/07/21 02:23:27;;;;;;;1999.90;999.90;;;;;;;;;;5112582;27;20448;-72
2022/07/21 02:25:55;;;;;;;1999.90;999.90;;;;;;;;;;5080927;27;20389;-71
2022/07/21 02:28:22;;;;;;;1999.90;999.90;;;;;;;;;;5078981;27;22036;-71
2022/07/21 02:30:52;;;;;;;1999.90;999.90;;;;;;;;;;5081990;27;20535;-72
2022/07/21 02:33:20;;;;;;;1999.90;999.90;;;;;;;;;;5079306;27;20854;-71
2022/07/21 02:35:48;;;;;;;1999.90;999.90;;;;;;;;;;5116689;27;20500;-71
2022/07/21 02:38:16;;;;;;;1999.90;999.90;;;;;;;;;;5077732;27;20399;-72
2022/07/21 02:40:43;;;;;;;1999.90;999.90;;;;;;;;;;5079433;27;20405;-71
2022/07/21 02:43:11;;;;;;;1999.90;999.90;;;;;;;;;;5079813;27;20459;-72
2022/07/21 02:45:41;;;;;;;1999.90;999.90;;;;;;;;;;5090302;27;20395;-73
2022/07/21 02:48:12;;;;;;;1999.90;999.90;;;;;;;;;;5081598;27;20433;-71
2022/07/21 02:50:40;;;;;;;1999.90;999.90;;;;;;;;;;5085491;27;20399;-71
2022/07/21 02:53:09;;;;;;;1999.90;999.90;;;;;;;;;;5082783;27;20409;-72
2022/07/21 02:55:37;;;;;;;1999.90;999.90;;;;;;;;;;5077785;27;20517;-72
2022/07/21 02:58:06;;;;;;;1999.90;999.90;;;;;;;;;;5094007;27;20432;-72
2022/07/21 03:00:34;;;;;;;1999.90;999.90;;;;;;;;;;5079670;27;20476;-72
2022/07/21 03:03:02;;;;;;;1999.90;999.90;;;;;;;;;;5078564;27;20465;-72
2022/07/21 03:05:31;;;;;;;1999.90;999.90;;;;;;;;;;5079561;27;20396;-72
2022/07/21 03:07:58;;;;;;;1999.90;999.90;;;;;;;;;;5084889;27;20399;-71
2022/07/21 03:10:26;;;;;;;1999.90;999.90;;;;;;;;;;5081531;27;20441;-71
2022/07/21 03:12:54;;;;;;;1999.90;999.90;;;;;;;;;;5079140;27;20416;-72
2022/07/21 03:15:22;;;;;;;1999.90;999.90;;;;;;;;;;5062529;27;20383;-72
2022/07/21 03:17:49;;;;;;;1999.90;999.90;;;;;;;;;;5078026;27;20466;-72
2022/07/21 03:20:17;;;;;;;1999.90;999.90;;;;;;;;;;5075166;27;20397;-72
2022/07/21 03:22:47;;;;;;;1999.90;999.90;;;;;;;;;;5098394;27;20469;-72
2022/07/21 03:25:30;;;;;;;1999.90;999.90;;;;;;;;;;5083568;27;20456;-72
2022/07/21 03:27:58;;;;;;;1999.90;999.90;;;;;;;;;;5085957;27;20841;-73
2022/07/21 03:30:41;;;;;;;1999.90;999.90;;;;;;;;;;5079668;27;20967;-72
2022/07/21 03:33:24;;;;;;;1999.90;999.90;;;;;;;;;;5080450;27;20408;-71
2022/07/21 03:35:52;;;;;;;1999.90;999.90;;;;;;;;;;5083614;27;20395;-73
2022/07/21 03:38:21;;;;;;;1999.90;999.90;;;;;;;;;;5086471;27;20467;-72
2022/07/21 03:40:49;;;;;;;1999.90;999.90;;;;;;;;;;5084768;27;20409;-72
2022/07/21 03:43:17;;;;;;;1999.90;999.90;;;;;;;;;;5078228;27;20405;-72
2022/07/21 03:45:45;;;;;;;1999.90;999.90;;;;;;;;;;5076775;27;20439;-72
2022/07/21 03:48:13;;;;;;;1999.90;999.90;;;;;;;;;;5077127;27;20402;-72
2022/07/21 03:50:42;;;;;;;1999.90;999.90;;;;;;;;;;5083500;27;20397;-72
2022/07/21 03:53:10;;;;;;;1999.90;999.90;;;;;;;;;;5083999;27;20400;-72
2022/07/21 03:55:39;;;;;;;1999.90;999.90;;;;;;;;;;5080898;27;20449;-75
2022/07/21 03:58:07;;;;;;;1999.90;999.90;;;;;;;;;;5079895;27;20413;-72
2022/07/21 04:00:36;;;;;;;1999.90;999.90;;;;;;;;;;5085206;27;20397;-72
2022/07/21 04:03:05;;;;;;;1999.90;999.90;;;;;;;;;;5081132;27;20867;-72
2022/07/21 04:05:33;;;;;;;1999.90;999.90;;;;;;;;;;5079348;27;20506;-75
2022/07/21 04:08:01;;;;;;;1999.90;999.90;;;;;;;;;;5080131;27;20394;-72
2022/07/21 04:10:30;;;;;;;1999.90;999.90;;;;;;;;;;5065065;27;20398;-72
2022/07/21 04:13:00;;;;;;;1999.90;999.90;;;;;;;;;;5080886;27;20897;-72
2022/07/21 04:15:28;;;;;;;1999.90;999.90;;;;;;;;;;5085343;27;20462;-71
2022/07/21 04:17:56;;;;;;;1999.90;999.90;;;;;;;;;;5064359;28;20389;-73
2022/07/21 04:20:24;;;;;;;1999.90;999.90;;;;;;;;;;5083313;27;20405;-74
2022/07/21 04:22:52;;;;;;;1999.90;999.90;;;;;;;;;;5082735;27;20929;-74
2022/07/21 04:25:20;;;;;;;1999.90;999.90;;;;;;;;;;5080285;27;20395;-74
2022/07/21 04:27:48;;;;;;;1999.90;999.90;;;;;;;;;;5080843;27;20508;-74
2022/07/21 04:30:18;;;;;;;1999.90;999.90;;;;;;;;;;5081171;27;20397;-74
2022/07/21 04:32:46;;;;;;;1999.90;999.90;;;;;;;;;;5081301;27;20866;-74
2022/07/21 04:35:15;;;;;;;1999.90;999.90;;;;;;;;;;5080660;27;21073;-75
2022/07/21 04:37:43;;;;;;;1999.90;999.90;;;;;;;;;;5080284;27;21261;-75
2022/07/21 04:40:12;;;;;;;1999.90;999.90;;;;;;;;;;5080000;27;20401;-74
2022/07/21 04:42:40;;;;;;;1999.90;999.90;;;;;;;;;;5099427;27;20855;-74
2022/07/21 04:45:09;;;;;;;1999.90;999.90;;;;;;;;;;5079276;27;20401;-74
2022/07/21 04:47:44;;;;;;;1999.90;999.90;;;;;;;;;;5079865;27;20872;-74
2022/07/21 04:50:12;;;;;;;1999.90;999.90;;;;;;;;;;5100137;27;20398;-73
2022/07/21 04:52:40;;;;;;;1999.90;999.90;;;;;;;;;;5097368;27;20436;-74
2022/07/21 04:55:08;;;;;;;1999.90;999.90;;;;;;;;;;5120433;27;20387;-74
2022/07/21 04:57:52;;;;;;;1999.90;999.90;;;;;;;;;;5080196;27;21799;-74
2022/07/21 05:00:20;;;;;;;1999.90;999.90;;;;;;;;;;5079202;27;20448;-73
2022/07/21 05:02:50;;;;;;;1999.90;999.90;;;;;;;;;;5080978;27;20415;-74
2022/07/21 05:05:18;;;;;;;1999.90;999.90;;;;;;;;;;5078388;27;20384;-74
2022/07/21 05:07:46;;;;;;;1999.90;999.90;;;;;;;;;;5100316;27;20420;-74
2022/07/21 05:10:15;;;;;;;1999.90;999.90;;;;;;;;;;5084874;27;20368;-73
2022/07/21 05:12:43;;;;;;;1999.90;999.90;;;;;;;;;;5097878;27;20397;-73
2022/07/21 05:15:12;;;;;;;1999.90;999.90;;;;;;;;;;5088524;27;20380;-73
2022/07/21 05:17:39;;;;;;;1999.90;999.90;;;;;;;;;;5080678;27;20404;-73
2022/07/21 05:20:09;;;;;;;1999.90;999.90;;;;;;;;;;5084628;27;20439;-73
2022/07/21 05:22:37;;;;;;;1999.90;999.90;;;;;;;;;;5081261;27;20417;-73
2022/07/21 05:25:05;;;;;;;1999.90;999.90;;;;;;;;;;5081257;27;20410;-74
2022/07/21 05:27:33;;;;;;;1999.90;999.90;;;;;;;;;;5085088;27;20392;-74
2022/07/21 05:30:01;;;;;;;1999.90;999.90;;;;;;;;;;5070892;27;20399;-73
2022/07/21 05:32:29;;;;;;;1999.90;999.90;;;;;;;;;;5081661;27;20413;-75
2022/07/21 05:34:57;;;;;;;1999.90;999.90;;;;;;;;;;5084693;27;21779;-75
2022/07/21 05:37:27;;;;;;;1999.90;999.90;;;;;;;;;;5084142;27;20760;-73
2022/07/21 05:39:55;;;;;;;1999.90;999.90;;;;;;;;;;5087270;27;20479;-72
2022/07/21 05:42:22;;;;;;;1999.90;999.90;;;;;;;;;;5112153;27;20401;-75
2022/07/21 05:44:50;;;;;;;1999.90;999.90;;;;;;;;;;5080468;27;21382;-76
2022/07/21 05:47:18;;;;;;;1999.90;999.90;;;;;;;;;;5079653;27;20417;-74
2022/07/21 05:49:46;;;;;;;1999.90;999.90;;;;;;;;;;5079277;27;21119;-75
2022/07/21 05:52:13;;;;;;;1999.90;999.90;;;;;;;;;;5086411;27;20411;-74
2022/07/21 05:54:43;;;;;;;1999.90;999.90;;;;;;;;;;5083141;27;20396;-75
2022/07/21 05:57:10;;;;;;;1999.90;999.90;;;;;;;;;;5078500;27;20402;-75
2022/07/21 05:59:38;;;;;;;1999.90;999.90;;;;;;;;;;5084085;27;20404;-74
2022/07/21 06:02:06;;;;;;;1999.90;999.90;;;;;;;;;;5084663;27;20405;-74
2022/07/21 06:04:34;;;;;;;1999.90;999.90;;;;;;;;;;5080971;27;20531;-75
2022/07/21 06:07:02;;;;;;;1999.90;999.90;;;;;;;;;;5082455;27;20404;-74
2022/07/21 06:09:29;;;;;;;1999.90;999.90;;;;;;;;;;5061598;27;20405;-74
2022/07/21 06:11:58;;;;;;;1999.90;999.90;;;;;;;;;;5079332;27;21228;-74
2022/07/21 06:14:26;;;;;;;1999.90;999.90;;;;;;;;;;5079056;27;20393;-73
2022/07/21 06:16:54;;;;;;;1999.90;999.90;;;;;;;;;;5064041;28;20407;-75
2022/07/21 06:19:22;;;;;;;1999.90;999.90;;;;;;;;;;5078523;27;20470;-75
2022/07/21 06:21:58;;;;;;;1999.90;999.90;;;;;;;;;;5092660;27;21041;-75
2022/07/21 06:24:26;;;;;;;1999.90;999.90;;;;;;;;;;5080241;27;20455;-75
2022/07/21 06:26:55;;;;;;;1999.90;999.90;;;;;;;;;;5083268;27;20616;-73
2022/07/21 06:29:31;;;;;;;1999.90;999.90;;;;;;;;;;5084213;27;20397;-74
2022/07/21 06:31:59;;;;;;;1999.90;999.90;;;;;;;;;;5083566;27;20438;-73
2022/07/21 06:34:26;;;;;;;1999.90;999.90;;;;;;;;;;5082748;27;20429;-74
2022/07/21 06:36:54;;;;;;;1999.90;999.90;;;;;;;;;;5080348;27;20397;-74
2022/07/21 06:39:22;;;;;;;1999.90;999.90;;;;;;;;;;5081666;27;20402;-73
2022/07/21 06:41:50;;;;;;;1999.90;999.90;;;;;;;;;;5079654;27;20428;-72
2022/07/21 06:44:19;;;;;;;1999.90;999.90;;;;;;;;;;5080885;27;21185;-73
2022/07/21 06:46:48;;;;;;;1999.90;999.90;;;;;;;;;;5087948;27;20415;-73
2022/07/21 06:49:16;;;;;;;1999.90;999.90;;;;;;;;;;5082633;27;20393;-72
2022/07/21 06:51:43;;;;;;;1999.90;999.90;;;;;;;;;;5081753;27;20459;-71
2022/07/21 06:54:11;;;;;;;1999.90;999.90;;;;;;;;;;5080899;27;20388;-72
2022/07/21 06:56:39;;;;;;;1999.90;999.90;;;;;;;;;;5079447;27;20903;-71
2022/07/21 06:59:07;;;;;;;1999.90;999.90;;;;;;;;;;5082136;27;20407;-72
2022/07/21 07:01:35;;;;;;;1999.90;999.90;;;;;;;;;;5081623;27;20974;-73
2022/07/21 07:04:05;;;;;;;1999.90;999.90;;;;;;;;;;5062302;27;20435;-73
2022/07/21 07:06:33;;;;;;;1999.90;999.90;;;;;;;;;;5091695;27;20393;-74
2022/07/21 07:09:00;;;;;;;1999.90;999.90;;;;;;;;;;5080018;27;20401;-73
2022/07/21 07:11:29;;;;;;;1999.90;999.90;;;;;;;;;;5080324;27;20400;-73
2022/07/21 07:13:56;;;;;;;1999.90;999.90;;;;;;;;;;5077232;27;21153;-74
2022/07/21 07:16:35;;;;;;;1999.90;999.90;;;;;;;;;;5084072;27;21215;-73
2022/07/21 07:19:04;;;;;;;1999.90;999.90;;;;;;;;;;5080466;27;20396;-73
2022/07/21 07:21:32;;;;;;;1999.90;999.90;;;;;;;;;;5079013;27;20400;-73
2022/07/21 07:24:01;;;;;;;1999.90;999.90;;;;;;;;;;5081125;27;20412;-72
2022/07/21 07:26:29;;;;;;;1999.90;999.90;;;;;;;;;;5083559;27;20913;-73
2022/07/21 07:28:57;;;;;;;1999.90;999.90;;;;;;;;;;5078399;27;20428;-72
2022/07/21 07:31:25;;;;;;;1999.90;999.90;;;;;;;;;;5079568;27;20866;-74
2022/07/21 07:33:52;;;;;;;1999.90;999.90;;;;;;;;;;5087094;27;20387;-72
2022/07/21 07:36:22;;;;;;;1999.90;999.90;;;;;;;;;;5116009;27;20426;-73
2022/07/21 07:38:51;;;;;;;1999.90;999.90;;;;;;;;;;5083106;27;20871;-72
2022/07/21 07:41:19;;;;;;;1999.90;999.90;;;;;;;;;;5084711;27;20541;-73
2022/07/21 07:43:47;;;;;;;1999.90;999.90;;;;;;;;;;5089151;27;20397;-74
2022/07/21 07:46:15;;;;;;;1999.90;999.90;;;;;;;;;;5083012;27;20396;-72
2022/07/21 07:48:43;;;;;;;1999.90;999.90;;;;;;;;;;5084705;27;20391;-72
2022/07/21 07:51:11;;;;;;;1999.90;999.90;;;;;;;;;;5083401;27;20408;-73
2022/07/21 07:53:41;;;;;;;1999.90;999.90;;;;;;;;;;5084161;27;20405;-73
2022/07/21 07:56:09;;;;;;;1999.90;999.90;;;;;;;;;;5084316;27;20391;-73
2022/07/21 07:58:37;;;;;;;1999.90;999.90;;;;;;;;;;5069513;28;21051;-73
2022/07/21 08:01:05;;;;;;;1999.90;999.90;;;;;;;;;;5085797;27;20405;-73
2022/07/21 08:03:35;;;;;;;1999.90;999.90;;;;;;;;;;5083581;27;20550;-73
2022/07/21 08:06:05;;;;;;;1999.90;999.90;;;;;;;;;;5087527;27;21851;-72
2022/07/21 08:08:33;;;;;;;1999.90;999.90;;;;;;;;;;5079834;27;20401;-73
2022/07/21 08:11:02;;;;;;;1999.90;999.90;;;;;;;;;;5066092;27;20408;-72
2022/07/21 08:13:30;;;;;;;1999.90;999.90;;;;;;;;;;5081920;27;20412;-73
2022/07/21 08:15:58;;;;;;;1999.90;999.90;;;;;;;;;;5082096;27;20787;-73
2022/07/21 08:18:26;;;;;;;1999.90;999.90;;;;;;;;;;5088802;27;20858;-73
2022/07/21 08:20:54;;;;;;;1999.90;999.90;;;;;;;;;;5087966;27;20478;-71
2022/07/21 08:23:22;;;;;;;1999.90;999.90;;;;;;;;;;5084984;27;20385;-73
2022/07/21 08:25:49;;;;;;;1999.90;999.90;;;;;;;;;;5085542;27;20416;-73
2022/07/21 08:28:18;;;;;;;1999.90;999.90;;;;;;;;;;5089523;27;20576;-69
2022/07/21 08:30:46;;;;;;;1999.90;999.90;;;;;;;;;;5089838;27;20403;-74
2022/07/21 08:33:14;;;;;;;1999.90;999.90;;;;;;;;;;5086204;27;20398;-75
2022/07/21 08:35:42;;;;;;;1999.90;999.90;;;;;;;;;;5094948;27;20421;-75
2022/07/21 08:38:11;;;;;;;1999.90;999.90;;;;;;;;;;5081661;27;20807;-76
2022/07/21 08:40:39;;;;;;;1999.90;999.90;;;;;;;;;;5086808;27;21231;-74
2022/07/21 08:43:08;;;;;;;1999.90;999.90;;;;;;;;;;5083271;27;20898;-75
2022/07/21 08:45:38;;;;;;;1999.90;999.90;;;;;;;;;;5087510;27;20397;-76
2022/07/21 08:48:06;;;;;;;1999.90;999.90;;;;;;;;;;5098117;27;20412;-75
2022/07/21 08:50:35;;;;;;;1999.90;999.90;;;;;;;;;;5080220;27;20411;-75
2022/07/21 08:53:04;;;;;;;1999.90;999.90;;;;;;;;;;5082672;27;20392;-75
2022/07/21 08:55:32;;;;;;;1999.90;999.90;;;;;;;;;;5082071;27;20417;-75
2022/07/21 08:58:01;;;;;;;1999.90;999.90;;;;;;;;;;5082526;27;21363;-75
2022/07/21 09:00:34;;;;;;;1999.90;999.90;;;;;;;;;;5083446;27;20867;-76
2022/07/21 09:03:12;;;;;;;1999.90;999.90;;;;;;;;;;5086161;27;20443;-75
2022/07/21 09:05:40;;;;;;;1999.90;999.90;;;;;;;;;;5087327;27;20407;-75
2022/07/21 09:08:08;;;;;;;1999.90;999.90;;;;;;;;;;5084086;27;20389;-75
2022/07/21 09:10:36;;;;;;;1999.90;999.90;;;;;;;;;;5088064;27;20402;-75
2022/07/21 09:13:04;;;;;;;1999.90;999.90;;;;;;;;;;5087885;27;20416;-75
2022/07/21 09:15:32;;;;;;;1999.90;999.90;;;;;;;;;;5085749;27;20440;-75
2022/07/21 09:18:07;;;;;;;1999.90;999.90;;;;;;;;;;5091319;27;20361;-74
2022/07/21 09:20:46;;;;;;;1999.90;999.90;;;;;;;;;;5091929;27;20501;-76
2022/07/21 09:23:15;;;;;;;1999.90;999.90;;;;;;;;;;5081457;27;20393;-76
2022/07/21 09:25:45;;;;;;;1999.90;999.90;;;;;;;;;;5069268;28;20894;-76
2022/07/21 09:28:14;;;;;;;1999.90;999.90;;;;;;;;;;5122305;27;20390;-75
2022/07/21 09:30:59;;;;;;;1999.90;999.90;;;;;;;;;;5084956;27;20423;-76
2022/07/21 09:33:31;;;;;;;1999.90;999.90;;;;;;;;;;5098524;27;20397;-76
2022/07/21 09:36:02;;;;;;;1999.90;999.90;;;;;;;;;;5089947;27;20415;-75
2022/07/21 09:38:30;;;;;;;1999.90;999.90;;;;;;;;;;5084178;27;20400;-76
2022/07/21 09:41:09;;;;;;;1999.90;999.90;;;;;;;;;;5065999;27;20475;-77
2022/07/21 09:43:41;;;;;;;1999.90;999.90;;;;;;;;;;5079466;27;20401;-75
2022/07/21 09:46:10;;;;;;;1999.90;999.90;;;;;;;;;;5087788;27;20409;-75
2022/07/21 09:48:40;;;;;;;1999.90;999.90;;;;;;;;;;5083423;27;20396;-75
2022/07/21 09:51:22;;;;;;;1999.90;999.90;;;;;;;;;;5089596;27;20412;-75
2022/07/21 09:53:51;;;;;;;1999.90;999.90;;;;;;;;;;5078856;27;20806;-75
2022/07/21 09:56:19;;;;;;;1999.90;999.90;;;;;;;;;;5083841;27;21034;-75
2022/07/21 09:58:48;;;;;;;1999.90;999.90;;;;;;;;;;5084674;27;20408;-75
2022/07/21 10:01:16;;;;;;;1999.90;999.90;;;;;;;;;;5081787;27;20401;-75
2022/07/21 10:03:45;;;;;;;1999.90;999.90;;;;;;;;;;5062519;28;20385;-75
2022/07/21 10:06:14;;;;;;;1999.90;999.90;;;;;;;;;;5100041;27;20439;-75
2022/07/21 10:08:43;;;;;;;1999.90;999.90;;;;;;;;;;5084025;27;20409;-76
2022/07/21 10:11:11;;;;;;;1999.90;999.90;;;;;;;;;;5085733;27;20405;-77
2022/07/21 10:13:45;;;;;;;1999.90;999.90;;;;;;;;;;5082015;27;20393;-76
2022/07/21 10:16:13;;;;;;;1999.90;999.90;;;;;;;;;;5087098;27;20415;-76
2022/07/21 10:18:56;;;;;;;1999.90;999.90;;;;;;;;;;5102760;27;20443;-76
2022/07/21 10:21:29;;;;;;;1999.90;999.90;;;;;;;;;;5062104;27;20451;-75
2022/07/21 10:23:58;;;;;;;1999.90;999.90;;;;;;;;;;5079837;27;20488;-75
2022/07/21 10:26:26;;;;;;;1999.90;999.90;;;;;;;;;;5078404;27;20427;-75
2022/07/21 10:28:55;;;;;;;1999.90;999.90;;;;;;;;;;5084436;27;20381;-76
2022/07/21 10:31:23;;;;;;;1999.90;999.90;;;;;;;;;;5081957;27;20410;-76
2022/07/21 10:33:55;;;;;;;1999.90;999.90;;;;;;;;;;5084702;27;20822;-76
2022/07/21 10:36:41;;;;;;;1999.90;999.90;;;;;;;;;;5084981;27;20479;-76
2022/07/21 10:39:20;;;;;;;1999.90;999.90;;;;;;;;;;5084902;27;20444;-76
2022/07/21 10:41:49;;;;;;;1999.90;999.90;;;;;;;;;;5084037;27;20401;-75
2022/07/21 10:44:35;;;;;;;1999.90;999.90;;;;;;;;;;5078208;27;20470;-75
2022/07/21 10:47:04;;;;;;;1999.90;999.90;;;;;;;;;;5080005;27;21325;-76
2022/07/21 10:49:43;;;;;;;1999.90;999.90;;;;;;;;;;5084732;27;21269;-77
2022/07/21 10:52:29;;;;;;;1999.90;999.90;;;;;;;;;;5081834;27;20490;-77
2022/07/21 10:55:16;;;;;;;1999.90;999.90;;;;;;;;;;5084511;27;20401;-76
2022/07/21 10:57:46;;;;;;;1999.90;999.90;;;;;;;;;;5080888;27;21587;-78
2022/07/21 11:00:22;;;;;;;1999.90;999.90;;;;;;;;;;5080302;27;20779;-76
2022/07/21 11:02:51;;;;;;;1999.90;999.90;;;;;;;;;;5081972;27;20412;-77
2022/07/21 11:05:20;;;;;;;1999.90;999.90;;;;;;;;;;5082237;27;20857;-77
2022/07/21 11:08:06;;;;;;;1999.90;999.90;;;;;;;;;;5101406;27;20404;-75
2022/07/21 11:10:36;;;;;;;1999.90;999.90;;;;;;;;;;5088587;27;20403;-76
2022/07/21 11:13:05;;;;;;;1999.90;999.90;;;;;;;;;;5088541;27;20413;-75
2022/07/21 11:15:46;;;;;;;1999.90;999.90;;;;;;;;;;5091579;27;20446;-76
2022/07/21 11:18:17;;;;;;;1999.90;999.90;;;;;;;;;;5088581;27;20388;-75
2022/07/21 11:20:44;;;;;;;1999.90;999.90;;;;;;;;;;5068445;27;21057;-76
2022/07/21 11:23:12;;;;;;;1999.90;999.90;;;;;;;;;;5089534;27;20431;-76
2022/07/21 11:25:40;;;;;;;1999.90;999.90;;;;;;;;;;5095522;27;21209;-77
2022/07/21 11:28:18;;;;;;;1999.90;999.90;;;;;;;;;;5088896;27;20400;-78
2022/07/21 11:30:45;;;;;;;1999.90;999.90;;;;;;;;;;5087716;27;20403;-76
2022/07/21 11:33:21;;;;;;;1999.90;999.90;;;;;;;;;;5066089;27;20508;-76
2022/07/21 11:35:49;;;;;;;1999.90;999.90;;;;;;;;;;5086588;27;20234;-76
2022/07/21 11:38:17;;;;;;;1999.90;999.90;;;;;;;;;;5086610;27;20234;-77
2022/07/21 11:40:45;;;;;;;1999.90;999.90;;;;;;;;;;5093754;27;20226;-77
2022/07/21 11:43:13;;;;;;;1999.90;999.90;;;;;;;;;;5088903;27;20221;-76
2022/07/21 11:45:51;;;;;;;1999.90;999.90;;;;;;;;;;5086079;27;20226;-75
2022/07/21 11:48:30;;;;;;;1999.90;999.90;;;;;;;;;;5082747;27;20229;-77
2022/07/21 11:51:00;;;;;;;1999.90;999.90;;;;;;;;;;5087589;27;20230;-75
2022/07/21 11:53:27;;;;;;;1999.90;999.90;;;;;;;;;;5123024;27;20228;-76
2022/07/21 11:55:55;;;;;;;1999.90;999.90;;;;;;;;;;5086681;27;20227;-75
2022/07/21 11:58:23;;;;;;;1999.90;999.90;;;;;;;;;;5072062;27;20239;-77
2022/07/21 12:01:04;;;;;;;1999.90;999.90;;;;;;;;;;5093509;27;20417;-75
2022/07/21 12:03:32;;;;;;;1999.90;999.90;;;;;;;;;;5080768;27;20393;-74
2022/07/21 12:06:00;;;;;;;1999.90;999.90;;;;;;;;;;5126026;27;20398;-75
2022/07/21 12:08:29;;;;;;;1999.90;999.90;;;;;;;;;;5087786;27;20389;-74
2022/07/21 12:11:06;;;;;;;1999.90;999.90;;;;;;;;;;5091285;27;20424;-74
2022/07/21 12:13:49;;;;;;;1999.90;999.90;;;;;;;;;;5082535;27;20627;-75
2022/07/21 12:16:18;;;;;;;1999.90;999.90;;;;;;;;;;5083997;27;20230;-74
2022/07/21 12:18:46;;;;;;;1999.90;999.90;;;;;;;;;;5090381;27;20234;-75
2022/07/21 12:21:14;;;;;;;1999.90;999.90;;;;;;;;;;5090580;27;20314;-75
2022/07/21 12:23:42;;;;;;;1999.90;999.90;;;;;;;;;;5084108;27;20223;-75
2022/07/21 12:26:20;;;;;;;1999.90;999.90;;;;;;;;;;5082798;27;20385;-74
2022/07/21 12:28:49;;;;;;;1999.90;999.90;;;;;;;;;;5090098;27;20222;-75
2022/07/21 12:31:20;;;;;;;1999.90;999.90;;;;;;;;;;5085905;27;20409;-74
2022/07/21 12:33:49;;;;;;;1999.90;999.90;;;;;;;;;;5068568;28;20412;-74
2022/07/21 12:36:37;;;;;;;1999.90;999.90;;;;;;;;;;5083975;27;20387;-75
2022/07/21 12:39:55;;;;;;;1999.90;999.90;;;;;;;;;;5106062;27;20395;-74
2022/07/21 12:42:04;;;;;;;1999.90;999.90;;;;;;;;;;5085445;27;20969;-74
2022/07/21 12:44:32;;;;;;;1999.90;999.90;;;;;;;;;;5085297;27;20401;-76
2022/07/21 12:47:14;;;;;;;1999.90;999.90;;;;;;;;;;5082322;27;20444;-75
2022/07/21 12:49:55;;;;;;;1999.90;999.90;;;;;;;;;;5088912;27;20956;-75
2022/07/21 12:52:37;;;;;;;1999.90;999.90;;;;;;;;;;5084087;27;20408;-75
2022/07/21 12:55:06;;;;;;;1999.90;999.90;;;;;;;;;;5085820;27;20401;-75
2022/07/21 12:57:34;;;;;;;1999.90;999.90;;;;;;;;;;5082988;27;20488;-75
2022/07/21 13:00:02;;;;;;;1999.90;999.90;;;;;;;;;;5085693;27;20387;-76
2022/07/21 13:02:45;;;;;;;1999.90;999.90;;;;;;;;;;5117940;27;20452;-73
2022/07/21 13:05:13;;;;;;;1999.90;999.90;;;;;;;;;;5084858;27;20563;-75
2022/07/21 13:07:41;;;;;;;1999.90;999.90;;;;;;;;;;5095366;27;20398;-75
2022/07/21 13:10:09;;;;;;;1999.90;999.90;;;;;;;;;;5083499;27;20403;-75
2022/07/21 13:12:37;;;;;;;1999.90;999.90;;;;;;;;;;5082976;27;21152;-74
2022/07/21 13:15:05;;;;;;;1999.90;999.90;;;;;;;;;;5087739;27;20336;-75
2022/07/21 13:17:35;;;;;;;1999.90;999.90;;;;;;;;;;5080540;27;21316;-75
2022/07/21 13:20:03;;;;;;;1999.90;999.90;;;;;;;;;;5084262;27;20226;-76
2022/07/21 13:22:34;;;;;;;1999.90;999.90;;;;;;;;;;5080430;27;20933;-75
2022/07/21 13:25:02;;;;;;;1999.90;999.90;;;;;;;;;;5083430;27;20281;-75
2022/07/21 13:27:30;;;;;;;1999.90;999.90;;;;;;;;;;5082417;27;20401;-74
2022/07/21 13:29:58;;;;;;;1999.90;999.90;;;;;;;;;;5084301;27;20418;-75
2022/07/21 13:32:26;;;;;;;1999.90;999.90;;;;;;;;;;5081216;27;20230;-73
2022/07/21 13:34:55;;;;;;;1999.90;999.90;;;;;;;;;;5100361;27;20405;-74
2022/07/21 13:37:42;;;;;;;1999.90;999.90;;;;;;;;;;5081528;27;20393;-76
2022/07/21 13:40:11;;;;;;;1999.90;999.90;;;;;;;;;;5084773;27;20405;-74
2022/07/21 13:42:58;;;;;;;1999.90;999.90;;;;;;;;;;5081897;27;20231;-74
2022/07/21 13:45:46;;;;;;;1999.90;999.90;;;;;;;;;;5099222;27;20956;-74
2022/07/21 13:48:14;;;;;;;1999.90;999.90;;;;;;;;;;5084815;27;21735;-74
2022/07/21 13:50:43;;;;;;;1999.90;999.90;;;;;;;;;;5083140;27;20385;-74
2022/07/21 13:53:11;;;;;;;1999.90;999.90;;;;;;;;;;5081352;27;20480;-75
2022/07/21 13:55:38;;;;;;;1999.90;999.90;;;;;;;;;;5068442;28;20403;-74
2022/07/21 13:58:08;;;;;;;1999.90;999.90;;;;;;;;;;5086386;27;20455;-75
2022/07/21 14:00:36;;;;;;;1999.90;999.90;;;;;;;;;;5069869;28;20538;-76
2022/07/21 14:03:10;;;;;;;1999.90;999.90;;;;;;;;;;5079576;27;20404;-74